x

Pensacola - 115nm Ese Of Pensacola, Fl (42039) Wave Buoy

4:50am - Sat 25th Feb 2017 All times are CST. -6 hours from GMT.

  • Sig Wave height 1.0ft
  • Swell Direction
  • Peak Period 3s
  • Average Period 3s
  • Wind
    11mph
  • Sea Temp 71°f
  • Air Temp 71°f
  • Sea Pressure 1011.6mb
  • Pensacola - 115nm Ese Of Pensacola, Fl
  • Pensacola - 115nm Ese Of Pensacola, Fl

More Historic Weather Station data

Upgrade to MSW Pro to gain access to the past 30 days of data for over 8000 Wavebouys and Weather Stations around the globe.

Join Pro

Comparision Forecast

View Surf forecast
   
Sat 02/25 4:50am 1ft 3s 3s 11
mph
1011.6mb 71f 71f
3:50am 1ft 4s 3s 11 13 mph 1011.1mb 71f 71f
2:50am 1ft 4s 3s 11 13 mph 1010.8mb 71f 71f
1:50am 1ft 4s 3s 11
mph
1010.7mb 71f 71f
12:50am 1ft 4s 4s 11 13 mph 1010.6mb 71f 71f
Fri 02/24 11:50pm 1ft 4s 4s 11
mph
1010.8mb 71f 71f
10:50pm 1ft 4s 4s 7 9 mph 1011.2mb 71f 71f
9:50pm 1ft 4s 4s 2 4 mph 1011.9mb 71f 70f
8:50pm 1.3ft 4s 4s 4
mph
1011.8mb 71f 71f
7:50pm 1ft 4s 4s 2
mph
1011.6mb 72f 71f
6:50pm 1.3ft 4s 4s  -  2 mph 1011.2mb 72f 71f
5:50pm 1.3ft 4s 4s 2
mph
1011.1mb 72f 71f
4:50pm 1.3ft 4s 4s 4 7 mph 1010.9mb 72f 73f
3:50pm 1.3ft 4s 4s 4 7 mph 1010.9mb 72f 72f
2:50pm 1.3ft 4s 4s 4 7 mph 1010.4mb 72f 71f
1:50pm 1.3ft 4s 4s 7
mph
1010.5mb 72f 71f
12:50pm 1.3ft 4s 4s 7 9 mph 1010.8mb 72f 71f
11:50am 1.3ft 4s 4s 9 11 mph 1011.1mb 71f 71f
10:50am 1.3ft 6s 4s 9 11 mph 1011.7mb 71f 71f
9:50am 1.3ft 3s 3s 9 11 mph 1011.8mb 71f 71f
8:50am 1.6ft 3s 3s 9 11 mph 1011.7mb 71f 71f
7:50am 1.6ft 3s 3s 11 13 mph 1010.7mb 71f 71f
6:50am 1.3ft 3s 3s 13 16 mph 1010.1mb 71f 71f
5:50am 1.3ft 7s 3s 13 16 mph 1009.6mb 71f 71f
4:50am 1.3ft 6s 4s 11 13 mph 1009.5mb 71f 71f
3:50am 1.3ft 7s 4s 7 9 mph 1009.8mb 71f 71f
2:50am 1.3ft 6s 4s 9
mph
1009.8mb 71f 70f
1:50am 1.3ft 7s 4s 7 9 mph 1010mb 71f 70f
12:50am 1.6ft 5s 4s 9 11 mph 1010.3mb 71f 70f
Thu 02/23 11:50pm 1.6ft 5s 4s 11 13 mph 1010.2mb 71f 71f
10:50pm 2ft 5s 4s 11 13 mph 1010.5mb 71f 71f
9:50pm 2.5ft 5s 4s 9 11 mph 1010.4mb 71f 70f
8:50pm 2.5ft 6s 5s 9 11 mph 1010.1mb 71f 70f
7:50pm 3ft 6s 5s 9 11 mph 1009.7mb 71f 70f
6:50pm 3ft 6s 5s 7
mph
1009mb 71f 70f
5:50pm 3.5ft 6s 5s 7 9 mph 1008.5mb 71f 70f
4:50pm 3.5ft 6s 5s 7
mph
1008mb 71f 70f
3:50pm 3.5ft 6s 5s 9 11 mph 1007.9mb 71f 69f
2:50pm 3.5ft 6s 5s 9 11 mph 1007.7mb 71f 69f
1:50pm 3.5ft 6s 5s 11 13 mph 1007.8mb 71f 69f
12:50pm 4ft 6s 5s 11 13 mph 1008.2mb 71f 69f
11:50am 4ft 6s 5s 13 16 mph 1008.9mb 71f 69f
10:50am 3.5ft 5s 5s 13 16 mph 1009.3mb 71f 69f
9:50am 4ft 5s 4s 16 18 mph 1009.2mb 71f 68f
8:50am 4.5ft 5s 5s 13 16 mph 1008.9mb 71f 68f
7:50am 4ft 5s 4s 18 20 mph 1008.6mb 71f 67f
6:50am 4.5ft 5s 5s 18 20 mph 1008.3mb 71f 68f
5:50am 4.5ft 5s 5s 18 20 mph 1007.3mb 71f 68f
4:50am 4ft 5s 4s 16 20 mph 1007.1mb 71f 68f
3:50am 4ft 5s 5s 16 20 mph 1006.6mb 71f 69f
2:50am 4.5ft 5s 5s 18 20 mph 1006.2mb 71f 69f
1:50am 5ft 5s 5s 18 22 mph 1006.1mb 71f 69f
12:50am 4ft 5s 4s 20 25 mph 1006.3mb 71f 69f
Wed 02/22 11:50pm 4ft 4s 4s 20 25 mph 1006.4mb 71f 69f
10:50pm 4ft 6s 4s 20 25 mph 1006.2mb 71f 69f
9:50pm 3.5ft 6s 4s 20 25 mph 1006.1mb 71f 69f
8:50pm 3.5ft 6s 4s 20 25 mph 1006.5mb 71f 68f
7:50pm 4ft 6s 5s 16 20 mph 1006.6mb 71f 68f
6:50pm 4.5ft 6s 5s 16 18 mph 1006.3mb 71f 68f
5:50pm 4ft 6s 5s 7 9 mph 1005.4mb 71f 67f
4:50pm 4.5ft 6s 5s 2 4 mph 1004.8mb 71f 67f
3:50pm 4ft 6s 4s 7 9 mph 1004.5mb 71f 66f
2:50pm 4ft 5s 4s 13 18 mph 1004.2mb 71f 67f
1:50pm 4.5ft 5s 5s 18 22 mph 1004.3mb 71f 67f
12:50pm 4.5ft 5s 4s 16 18 mph 1004.8mb 71f 66f
11:50am 4ft 5s 4s 18 22 mph 1005.4mb 71f 67f
10:50am 4ft 6s 4s 13 18 mph 1006.4mb 71f 67f
9:50am 4.5ft 7s 4s 16 18 mph 1006.4mb 71f 67f
8:50am 3.5ft 7s 5s 18 22 mph 1006.4mb 70f 67f
7:50am 4ft 7s 5s 16 18 mph 1006.1mb 70f 68f
6:50am 4ft 7s 5s 11 13 mph 1006mb 70f 68f
4:50am 5ft 7s 5s  -  4 mph 1006mb 70f 67f
3:50am 5ft 7s 5s 7 9 mph 1006.4mb 70f 67f
2:50am 5ft 7s 5s 11 16 mph 1007mb 70f 67f
1:50am 5ft 7s 5s 16 18 mph 1007.1mb 70f 66f
12:50am 5ft 8s 5s 13 16 mph 1008.1mb 70f 67f
Tue 02/21 11:50pm 5ft 7s 5s 18 20 mph 1008.9mb 70f 66f
10:50pm 5ft 7s 5s 20 22 mph 1009.4mb 70f 66f
9:50pm 5ft 7s 5s 20 25 mph 1009.8mb 70f 66f
8:50pm 4.5ft 7s 5s 20 25 mph 1011.1mb 70f 66f
7:50pm 4.5ft 7s 5s 16 18 mph 1011.4mb 70f 66f
6:50pm 4.5ft 7s 5s 11 13 mph 1012mb 70f 65f
5:50pm 5ft 6s 5s 13 16 mph 1012.3mb 70f 65f
4:50pm 5ft 6s 5s 11 13 mph 1012.8mb 70f 65f
3:50pm 5ft 6s 5s 16 18 mph 1012.2mb 70f 66f
2:50pm 4.5ft 6s 4s 20 27 mph 1012.3mb 70f 66f
1:50pm 5ft 6s 5s 11 22 mph 1012.7mb 70f 71f
12:50pm 5ft 6s 5s 20 25 mph 1012.8mb 70f 73f
11:50am 5ft 5s 5s 22 27 mph 1013.9mb 70f 73f